createdAt,value
2017-08-16T00:00:19.631Z,92.61
2017-08-16T00:01:19.635Z,93.09
2017-08-16T00:02:19.350Z,94.25
2017-08-16T00:03:19.643Z,95.4
2017-08-16T00:04:19.659Z,95.6
2017-08-16T00:05:19.663Z,94.92
2017-08-16T00:06:19.656Z,93.19
2017-08-16T00:07:19.662Z,95.02
2017-08-16T00:08:19.665Z,95.6
2017-08-16T00:09:19.669Z,95.69
2017-08-16T00:10:19.688Z,96.46
2017-08-16T00:11:19.701Z,97.33
2017-08-16T00:12:19.374Z,98
2017-08-16T00:13:19.701Z,99.35
2017-08-16T00:14:19.680Z,99.99
2017-08-16T00:15:19.685Z,99.99
2017-08-16T00:16:19.689Z,99.99
2017-08-16T00:17:19.696Z,99.99
2017-08-16T00:18:19.700Z,99.99
2017-08-16T00:19:19.708Z,98.58
2017-08-16T00:20:19.699Z,97.38
2017-08-16T00:21:19.701Z,98.63
2017-08-16T00:22:19.726Z,99.49
2017-08-16T00:23:19.719Z,99.69
2017-08-16T00:24:19.712Z,99.88
2017-08-16T00:25:19.415Z,99.78
2017-08-16T00:26:19.709Z,99.99
2017-08-16T00:27:19.726Z,99.99
2017-08-16T00:28:19.730Z,99.78
2017-08-16T00:29:19.735Z,99.99
2017-08-16T00:30:19.748Z,99.99
2017-08-16T00:31:19.742Z,99.99
2017-08-16T00:32:19.743Z,99.99
2017-08-16T00:33:19.439Z,99.99
2017-08-16T00:34:19.744Z,99.99
2017-08-16T00:35:19.747Z,99.99
2017-08-16T00:36:19.775Z,99.99
2017-08-16T00:37:19.461Z,99.99
2017-08-16T00:38:19.755Z,99.99
2017-08-16T00:39:19.766Z,99.99
2017-08-16T00:40:19.793Z,99.99
2017-08-16T00:41:19.776Z,99.99
2017-08-16T00:42:19.758Z,99.99
2017-08-16T00:43:19.788Z,99.99
2017-08-16T00:44:19.486Z,99.99
2017-08-16T00:45:21.072Z,99.99
2017-08-16T00:46:19.787Z,99.99
2017-08-16T00:47:19.783Z,99.99
2017-08-16T00:48:19.785Z,99.99
2017-08-16T00:49:19.487Z,99.99
2017-08-16T00:50:19.788Z,99.99
2017-08-16T00:51:19.789Z,99.99
2017-08-16T00:52:19.497Z,99.99
2017-08-16T00:53:19.812Z,99.99
2017-08-16T00:54:19.804Z,99.99
2017-08-16T00:55:19.510Z,99.99
2017-08-16T00:56:19.817Z,99.99
2017-08-16T00:57:19.803Z,99.99
2017-08-16T00:58:19.824Z,99.99
2017-08-16T00:59:19.521Z,99.99
2017-08-16T01:00:19.829Z,99.99
2017-08-16T01:01:19.836Z,99.99
2017-08-16T01:02:19.835Z,99.99
2017-08-16T01:03:19.820Z,99.99
2017-08-16T01:04:19.529Z,99.99
2017-08-16T01:05:19.837Z,99.99
2017-08-16T01:06:19.834Z,99.99
2017-08-16T01:07:19.838Z,99.99
2017-08-16T01:08:19.840Z,99.99
2017-08-16T01:09:19.853Z,99.99
2017-08-16T01:10:19.843Z,99.99
2017-08-16T01:11:19.861Z,99.99
2017-08-16T01:12:19.853Z,99.99
2017-08-16T01:13:19.857Z,99.99
2017-08-16T01:14:19.854Z,99.99
2017-08-16T01:15:21.712Z,99.99
2017-08-16T01:16:19.869Z,99.99
2017-08-16T01:17:19.856Z,99.99
2017-08-16T01:18:19.561Z,99.99
2017-08-16T01:19:19.866Z,99.99
2017-08-16T01:20:19.877Z,99.99
2017-08-16T01:21:19.873Z,99.99
2017-08-16T01:22:19.883Z,99.99
2017-08-16T01:23:19.878Z,99.99
2017-08-16T01:24:19.873Z,99.99
2017-08-16T01:25:19.891Z,99.99
2017-08-16T01:26:19.896Z,99.99
2017-08-16T01:27:19.884Z,99.99
2017-08-16T01:28:19.588Z,99.99
2017-08-16T01:29:19.890Z,99.99
2017-08-16T01:30:19.905Z,99.99
2017-08-16T01:31:19.908Z,99.99
2017-08-16T01:32:19.603Z,99.99
2017-08-16T01:33:19.903Z,99.99
2017-08-16T01:34:19.612Z,99.99
2017-08-16T01:35:19.900Z,99.99
2017-08-16T01:36:19.907Z,99.99
2017-08-16T01:37:19.913Z,99.99
2017-08-16T01:38:19.920Z,99.99
2017-08-16T01:39:19.916Z,99.99
2017-08-16T01:40:19.641Z,99.99
2017-08-16T01:41:19.937Z,99.99
2017-08-16T01:42:19.923Z,99.99
2017-08-16T01:43:19.949Z,99.99
2017-08-16T01:44:19.937Z,99.99
2017-08-16T01:45:19.938Z,99.99
2017-08-16T01:46:19.958Z,99.99
2017-08-16T01:47:19.942Z,99.99
2017-08-16T01:48:19.938Z,99.99
2017-08-16T01:49:19.943Z,99.99
2017-08-16T01:50:19.998Z,99.99
2017-08-16T01:51:19.942Z,99.99
2017-08-16T01:52:19.940Z,99.99
2017-08-16T01:53:19.954Z,99.99
2017-08-16T01:54:19.950Z,99.99
2017-08-16T01:55:19.946Z,99.99
2017-08-16T01:56:19.951Z,99.99
2017-08-16T01:57:19.956Z,99.99
2017-08-16T01:58:19.965Z,99.99
2017-08-16T01:59:19.983Z,99.99
2017-08-16T02:00:19.966Z,99.99
2017-08-16T02:01:19.676Z,99.99
2017-08-16T02:02:19.967Z,99.99
2017-08-16T02:03:19.971Z,99.99
2017-08-16T02:04:19.976Z,99.99
2017-08-16T02:05:19.972Z,99.99
2017-08-16T02:06:19.972Z,99.99
2017-08-16T02:07:19.976Z,99.99
2017-08-16T02:08:19.974Z,99.99
2017-08-16T02:09:19.975Z,99.99
2017-08-16T02:10:19.983Z,99.99
2017-08-16T02:11:19.989Z,99.99
2017-08-16T02:12:19.986Z,99.99
2017-08-16T02:13:19.681Z,99.99
2017-08-16T02:14:20.006Z,99.99
2017-08-16T02:15:19.996Z,99.99
2017-08-16T02:16:20.008Z,99.99
2017-08-16T02:17:19.995Z,99.99
2017-08-16T02:18:20.011Z,99.99
2017-08-16T02:19:20.009Z,99.99
2017-08-16T02:20:20.007Z,99.99
2017-08-16T02:21:20.001Z,99.99
2017-08-16T02:22:19.704Z,99.99
2017-08-16T02:23:20.008Z,99.99
2017-08-16T02:24:19.998Z,99.99
2017-08-16T02:25:19.998Z,99.99
2017-08-16T02:26:20.012Z,99.99
2017-08-16T02:27:20.001Z,99.99
2017-08-16T02:28:20.002Z,99.99
2017-08-16T02:29:20.012Z,99.99
2017-08-16T02:30:20.011Z,99.99
2017-08-16T02:31:20.019Z,99.99
2017-08-16T02:32:20.025Z,99.99
2017-08-16T02:33:20.019Z,99.99
2017-08-16T02:34:20.014Z,99.99
2017-08-16T02:35:20.023Z,99.99
2017-08-16T02:36:20.019Z,99.99
2017-08-16T02:37:20.031Z,99.99
2017-08-16T02:38:20.024Z,99.99
2017-08-16T02:39:20.022Z,99.99
2017-08-16T02:40:20.040Z,99.99
2017-08-16T02:41:19.726Z,99.99
2017-08-16T02:42:20.033Z,99.99
2017-08-16T02:43:20.027Z,99.99
2017-08-16T02:44:20.039Z,99.99
2017-08-16T02:45:20.029Z,99.99
2017-08-16T02:46:20.436Z,99.99
2017-08-16T02:47:20.036Z,99.99
2017-08-16T02:48:20.047Z,99.99
2017-08-16T02:49:20.038Z,99.99
2017-08-16T02:50:20.035Z,99.99
2017-08-16T02:51:20.048Z,99.99
2017-08-16T02:52:20.038Z,99.99
2017-08-16T02:53:20.041Z,99.99
2017-08-16T02:54:20.054Z,99.99
2017-08-16T02:55:20.046Z,99.99
2017-08-16T02:56:20.047Z,99.99
2017-08-16T02:57:20.054Z,99.99
2017-08-16T02:58:20.051Z,99.99
2017-08-16T02:59:20.056Z,99.99
2017-08-16T03:00:20.052Z,99.99
2017-08-16T03:01:19.804Z,99.99
2017-08-16T03:02:20.055Z,99.99
2017-08-16T03:03:20.058Z,99.99
2017-08-16T03:04:20.058Z,99.99
2017-08-16T03:05:20.063Z,99.99
2017-08-16T03:06:20.066Z,99.99
2017-08-16T03:07:20.070Z,99.99
2017-08-16T03:08:20.067Z,99.99
2017-08-16T03:09:20.069Z,99.99
2017-08-16T03:10:20.075Z,99.99
2017-08-16T03:11:20.077Z,99.99
2017-08-16T03:12:20.077Z,99.99
2017-08-16T03:13:19.779Z,99.99
2017-08-16T03:14:20.079Z,99.99
2017-08-16T03:15:20.082Z,99.99
2017-08-16T03:16:22.835Z,99.99
2017-08-16T03:17:20.091Z,99.99
2017-08-16T03:18:20.090Z,99.99
2017-08-16T03:19:20.090Z,99.99
2017-08-16T03:20:20.090Z,99.99
2017-08-16T03:21:19.792Z,99.99
2017-08-16T03:22:20.096Z,99.99
2017-08-16T03:23:20.096Z,99.99
2017-08-16T03:24:20.102Z,99.99
2017-08-16T03:25:20.117Z,99.99
2017-08-16T03:26:19.802Z,99.99
2017-08-16T03:27:20.109Z,99.99
2017-08-16T03:28:19.813Z,99.99
2017-08-16T03:29:20.117Z,99.99
2017-08-16T03:30:20.121Z,99.99
2017-08-16T03:31:20.115Z,99.99
2017-08-16T03:32:19.821Z,99.99
2017-08-16T03:33:20.119Z,99.99
2017-08-16T03:34:19.820Z,99.99
2017-08-16T03:35:20.124Z,99.99
2017-08-16T03:36:20.128Z,99.99
2017-08-16T03:37:20.141Z,99.99
2017-08-16T03:38:20.131Z,99.99
2017-08-16T03:39:20.135Z,99.99
2017-08-16T03:40:20.140Z,99.99
2017-08-16T03:41:20.140Z,99.99
2017-08-16T03:42:20.142Z,99.99
2017-08-16T03:43:20.144Z,99.99
2017-08-16T03:44:20.146Z,99.99
2017-08-16T03:45:19.850Z,99.99
2017-08-16T03:46:20.155Z,99.99
2017-08-16T03:47:20.174Z,99.99
2017-08-16T03:48:20.157Z,99.99
2017-08-16T03:49:20.161Z,99.99
2017-08-16T03:50:20.163Z,99.99
2017-08-16T03:51:20.186Z,99.99
2017-08-16T03:52:20.175Z,99.99
2017-08-16T03:53:20.172Z,99.99
2017-08-16T03:54:20.180Z,99.99
2017-08-16T03:55:19.876Z,99.99
2017-08-16T03:56:20.181Z,99.99
2017-08-16T03:57:20.182Z,99.99
2017-08-16T03:58:19.881Z,99.99
2017-08-16T03:59:20.186Z,99.99
2017-08-16T04:00:20.193Z,99.99
2017-08-16T04:01:20.196Z,99.99
2017-08-16T04:02:20.205Z,99.99
2017-08-16T04:03:20.198Z,99.99
2017-08-16T04:04:20.200Z,99.99
2017-08-16T04:05:19.899Z,99.99
2017-08-16T04:06:20.203Z,99.99
2017-08-16T04:07:20.213Z,99.99
2017-08-16T04:08:20.217Z,99.99
2017-08-16T04:09:20.212Z,99.99
2017-08-16T04:10:20.216Z,99.99
2017-08-16T04:11:20.217Z,99.99
2017-08-16T04:12:19.917Z,99.99
2017-08-16T04:13:20.223Z,99.99
2017-08-16T04:14:20.229Z,99.99
2017-08-16T04:15:20.229Z,99.99
2017-08-16T04:16:20.233Z,99.99
2017-08-16T04:17:19.936Z,99.99
2017-08-16T04:18:20.237Z,99.99
2017-08-16T04:19:19.939Z,99.99
2017-08-16T04:20:20.247Z,99.99
2017-08-16T04:21:20.243Z,99.99
2017-08-16T04:22:19.945Z,99.99
2017-08-16T04:23:20.250Z,99.99
2017-08-16T04:24:19.949Z,99.99
2017-08-16T04:25:20.254Z,99.99
2017-08-16T04:26:20.258Z,99.99
2017-08-16T04:27:20.258Z,99.99
2017-08-16T04:28:20.260Z,99.99
2017-08-16T04:29:20.264Z,99.99
2017-08-16T04:30:20.268Z,99.99
2017-08-16T04:31:19.967Z,99.99
2017-08-16T04:32:20.273Z,99.99
2017-08-16T04:33:20.279Z,99.99
2017-08-16T04:34:20.283Z,99.99
2017-08-16T04:35:20.278Z,99.99
2017-08-16T04:36:20.297Z,99.99
2017-08-16T04:37:21.102Z,99.99
2017-08-16T04:38:20.289Z,99.99
2017-08-16T04:39:20.289Z,99.99
2017-08-16T04:40:20.291Z,99.99
2017-08-16T04:41:20.298Z,99.99
2017-08-16T04:42:19.996Z,99.99
2017-08-16T04:43:20.302Z,99.99
2017-08-16T04:44:20.306Z,99.99
2017-08-16T04:45:20.312Z,99.99
2017-08-16T04:46:20.312Z,99.99
2017-08-16T04:47:22.363Z,99.99
2017-08-16T04:48:20.313Z,99.99
2017-08-16T04:49:20.313Z,99.99
2017-08-16T04:50:20.028Z,99.99
2017-08-16T04:51:20.350Z,99.99
2017-08-16T04:52:20.323Z,99.99
2017-08-16T04:53:20.035Z,99.99
2017-08-16T04:54:20.333Z,99.99
2017-08-16T04:55:20.335Z,99.99
2017-08-16T04:56:20.336Z,99.99
2017-08-16T04:57:20.342Z,99.99
2017-08-16T04:58:20.347Z,99.99
2017-08-16T04:59:20.344Z,99.99
2017-08-16T05:00:20.048Z,99.99
2017-08-16T05:01:20.351Z,99.99
2017-08-16T05:02:20.353Z,99.99
2017-08-16T05:03:20.353Z,99.99
2017-08-16T05:04:20.356Z,99.99
2017-08-16T05:05:20.368Z,99.99
2017-08-16T05:06:20.364Z,99.99
2017-08-16T05:07:20.364Z,99.99
2017-08-16T05:08:20.368Z,99.99
2017-08-16T05:09:20.368Z,99.99
2017-08-16T05:10:20.378Z,99.99
2017-08-16T05:11:20.083Z,99.99
2017-08-16T05:12:20.378Z,99.99
2017-08-16T05:13:20.381Z,99.99
2017-08-16T05:14:20.383Z,99.99
2017-08-16T05:15:20.387Z,99.99
2017-08-16T05:16:20.388Z,99.99
2017-08-16T05:17:20.395Z,99.99
2017-08-16T05:18:20.397Z,99.99
2017-08-16T05:19:20.399Z,99.99
2017-08-16T05:20:20.406Z,99.99
2017-08-16T05:21:20.400Z,99.99
2017-08-16T05:22:20.400Z,99.99
2017-08-16T05:23:20.404Z,99.99
2017-08-16T05:24:20.431Z,99.99
2017-08-16T05:25:20.412Z,99.99
2017-08-16T05:26:20.415Z,99.99
2017-08-16T05:27:20.419Z,99.99
2017-08-16T05:28:20.437Z,99.99
2017-08-16T05:29:20.425Z,99.99
2017-08-16T05:30:20.138Z,99.99
2017-08-16T05:31:20.441Z,99.99
2017-08-16T05:32:20.434Z,99.99
2017-08-16T05:33:20.439Z,99.99
2017-08-16T05:34:20.436Z,99.99
2017-08-16T05:35:20.139Z,99.99
2017-08-16T05:36:20.445Z,99.99
2017-08-16T05:37:20.445Z,99.99
2017-08-16T05:38:20.453Z,99.99
2017-08-16T05:39:20.155Z,99.99
2017-08-16T05:40:20.450Z,99.99
2017-08-16T05:41:20.459Z,99.99
2017-08-16T05:42:20.460Z,99.99
2017-08-16T05:43:20.462Z,99.99
2017-08-16T05:44:20.464Z,99.99
2017-08-16T05:45:20.165Z,99.99
2017-08-16T05:46:20.485Z,99.99
2017-08-16T05:47:20.487Z,99.99
2017-08-16T05:48:20.480Z,99.99
2017-08-16T05:49:20.483Z,99.99
2017-08-16T05:50:20.199Z,99.99
2017-08-16T05:51:20.489Z,99.99
2017-08-16T05:52:20.489Z,99.99
2017-08-16T05:53:20.503Z,99.99
2017-08-16T05:54:20.505Z,99.99
2017-08-16T05:55:20.505Z,99.99
2017-08-16T05:56:20.507Z,99.99
2017-08-16T05:57:20.513Z,99.99
2017-08-16T05:58:20.517Z,99.99
2017-08-16T05:59:20.519Z,97.91
2017-08-16T06:00:20.521Z,98.49
2017-08-16T06:01:20.526Z,98.87
2017-08-16T06:02:20.529Z,97.81
2017-08-16T06:03:20.530Z,98.2
2017-08-16T06:04:20.549Z,98.78
2017-08-16T06:05:20.549Z,98.1
2017-08-16T06:06:20.546Z,97.04
2017-08-16T06:07:20.552Z,97.62
2017-08-16T06:08:20.555Z,96.66
2017-08-16T06:09:20.255Z,96.27
2017-08-16T06:10:20.560Z,97.24
2017-08-16T06:11:20.265Z,97.24
2017-08-16T06:12:20.568Z,97.52
2017-08-16T06:13:20.576Z,97.14
2017-08-16T06:14:20.582Z,96.46
2017-08-16T06:15:20.584Z,96.22
2017-08-16T06:16:20.587Z,97.24
2017-08-16T06:17:20.589Z,97.72
2017-08-16T06:18:21.050Z,97.24
2017-08-16T06:19:20.604Z,95.88
2017-08-16T06:20:20.610Z,95.98
2017-08-16T06:21:20.614Z,96.84
2017-08-16T06:22:20.615Z,95.88
2017-08-16T06:23:20.617Z,96.61
2017-08-16T06:24:20.621Z,96.8
2017-08-16T06:25:20.619Z,97.67
2017-08-16T06:26:20.634Z,96.89
2017-08-16T06:27:20.634Z,96.75
2017-08-16T06:28:20.649Z,96.66
2017-08-16T06:29:20.639Z,95.74
2017-08-16T06:30:20.658Z,95.5
2017-08-16T06:31:20.656Z,94.82
2017-08-16T06:32:20.654Z,95.98
2017-08-16T06:33:20.357Z,95.11
2017-08-16T06:34:20.661Z,93.76
2017-08-16T06:35:20.664Z,94.73
2017-08-16T06:36:20.678Z,95.59
2017-08-16T06:37:20.683Z,93.66
2017-08-16T06:38:20.682Z,93.95
2017-08-16T06:39:20.683Z,94.82
2017-08-16T06:40:20.686Z,94.53
2017-08-16T06:41:20.699Z,93.95
2017-08-16T06:42:20.698Z,94.82
2017-08-16T06:43:20.711Z,95.79
2017-08-16T06:44:20.709Z,96.36
2017-08-16T06:45:20.707Z,94.92
2017-08-16T06:46:20.719Z,95.45
2017-08-16T06:47:20.714Z,93.66
2017-08-16T06:48:20.724Z,93.57
2017-08-16T06:49:20.721Z,94.05
2017-08-16T06:50:20.725Z,94.73
2017-08-16T06:51:20.730Z,93.8
2017-08-16T06:52:20.732Z,91.88
2017-08-16T06:53:20.739Z,92.36
2017-08-16T06:54:20.745Z,90.23
2017-08-16T06:55:20.749Z,90.28
2017-08-16T06:56:20.765Z,91.05
2017-08-16T06:57:20.764Z,91.15
2017-08-16T06:58:20.766Z,88.54
2017-08-16T06:59:20.768Z,88.35
2017-08-16T07:00:20.803Z,90.95
2017-08-16T07:01:20.780Z,86.36
2017-08-16T07:02:20.785Z,85.15
2017-08-16T07:03:20.801Z,82.2
2017-08-16T07:04:20.790Z,82.43
2017-08-16T07:05:20.798Z,82.33
2017-08-16T07:06:20.798Z,82.87
2017-08-16T07:07:20.809Z,84.03
2017-08-16T07:08:20.812Z,85.25
2017-08-16T07:09:20.817Z,86.21
2017-08-16T07:10:20.821Z,86.36
2017-08-16T07:11:20.831Z,87.23
2017-08-16T07:12:20.834Z,88.01
2017-08-16T07:13:20.838Z,89.36
2017-08-16T07:14:20.847Z,88.68
2017-08-16T07:15:20.542Z,86.69
2017-08-16T07:16:20.851Z,81.75
2017-08-16T07:17:20.855Z,77.19
2017-08-16T07:18:20.858Z,73.96
2017-08-16T07:19:21.372Z,72.09
2017-08-16T07:20:20.869Z,70.19
2017-08-16T07:21:20.880Z,67.83
2017-08-16T07:22:20.883Z,65.17
2017-08-16T07:23:20.894Z,63.45
2017-08-16T07:24:20.905Z,61.73
2017-08-16T07:25:20.907Z,60.82
2017-08-16T07:26:20.910Z,59.06
2017-08-16T07:27:20.933Z,58.63
2017-08-16T07:28:20.933Z,56.9
2017-08-16T07:29:20.652Z,55.18
2017-08-16T07:30:20.943Z,55.47
2017-08-16T07:31:20.649Z,54.03
2017-08-16T07:32:20.655Z,54.25
2017-08-16T07:33:20.981Z,53.37
2017-08-16T07:34:20.970Z,54.81
2017-08-16T07:35:20.991Z,54.69
2017-08-16T07:36:20.714Z,55.57
2017-08-16T07:37:20.996Z,56.22
2017-08-16T07:38:21.011Z,57.95
2017-08-16T07:39:21.012Z,59.84
2017-08-16T07:40:21.023Z,61.37
2017-08-16T07:41:21.042Z,62.8
2017-08-16T07:42:20.748Z,64
2017-08-16T07:43:21.051Z,65.04
2017-08-16T07:44:20.756Z,63.87
2017-08-16T07:45:21.064Z,64.26
2017-08-16T07:46:21.079Z,65.5
2017-08-16T07:47:21.081Z,66.82
2017-08-16T07:48:20.781Z,68.83
2017-08-16T07:49:25.795Z,70.45
2017-08-16T07:50:21.102Z,71.19
2017-08-16T07:51:20.806Z,71.77
2017-08-16T07:52:21.122Z,70.15
2017-08-16T07:53:21.124Z,66.5
2017-08-16T07:54:21.121Z,65.01
2017-08-16T07:55:21.130Z,63.97
2017-08-16T07:56:21.135Z,62.29
2017-08-16T07:57:21.152Z,60.95
2017-08-16T07:58:21.164Z,59.06
2017-08-16T07:59:21.162Z,59.23
2017-08-16T08:00:21.177Z,60.1
2017-08-16T08:01:21.186Z,58.94
2017-08-16T08:02:21.185Z,58.84
2017-08-16T08:03:21.194Z,60.59
2017-08-16T08:04:21.198Z,62.22
2017-08-16T08:05:21.207Z,63.62
2017-08-16T08:06:21.213Z,64.46
2017-08-16T08:07:20.922Z,66.56
2017-08-16T08:08:21.226Z,66.44
2017-08-16T08:09:21.239Z,67.11
2017-08-16T08:10:20.934Z,67.76
2017-08-16T08:11:21.246Z,67.18
2017-08-16T08:12:21.252Z,66.99
2017-08-16T08:13:21.262Z,68.05
2017-08-16T08:14:21.267Z,66.99
2017-08-16T08:15:20.974Z,66.44
2017-08-16T08:16:21.282Z,64.33
2017-08-16T08:17:20.993Z,63
2017-08-16T08:18:21.295Z,62.64
2017-08-16T08:19:21.311Z,61.38
2017-08-16T08:20:21.310Z,62.35
2017-08-16T08:21:21.021Z,62.41
2017-08-16T08:22:21.026Z,63.1
2017-08-16T08:23:21.331Z,61.35
2017-08-16T08:24:21.341Z,60.92
2017-08-16T08:25:21.350Z,61.05
2017-08-16T08:26:21.351Z,60.17
2017-08-16T08:27:21.358Z,60.72
2017-08-16T08:28:21.384Z,60.72
2017-08-16T08:29:21.373Z,61.41
2017-08-16T08:30:21.081Z,61.6
2017-08-16T08:31:21.392Z,61.11
2017-08-16T08:32:21.095Z,61.99
2017-08-16T08:33:21.106Z,62.06
2017-08-16T08:34:21.414Z,61.47
2017-08-16T08:35:21.617Z,62.84
2017-08-16T08:36:21.435Z,63.39
2017-08-16T08:37:21.439Z,65.4
2017-08-16T08:38:21.650Z,64.81
2017-08-16T08:39:21.466Z,65.27
2017-08-16T08:40:21.939Z,65.47
2017-08-16T08:41:21.284Z,64.01
2017-08-16T08:42:21.584Z,64.59
2017-08-16T08:43:21.539Z,65.33
2017-08-16T08:44:21.885Z,66.3
2017-08-16T08:45:22.641Z,68.41
2017-08-16T08:46:21.510Z,67.83
2017-08-16T08:47:21.945Z,68.47
2017-08-16T08:48:21.579Z,68.28
2017-08-16T08:49:21.555Z,68.08
2017-08-16T08:50:26.051Z,67.44
2017-08-16T08:51:21.955Z,66.6
2017-08-16T08:52:21.963Z,66.89
2017-08-16T08:53:21.605Z,66.89
2017-08-16T08:54:21.620Z,65.43
2017-08-16T08:55:22.665Z,66.69
2017-08-16T08:56:22.005Z,66.4
2017-08-16T08:57:21.668Z,65.95
2017-08-16T08:58:21.678Z,64.88
2017-08-16T08:59:21.505Z,65.24
2017-08-16T09:00:22.467Z,66.4
2017-08-16T09:01:21.714Z,68.02
2017-08-16T09:02:22.173Z,69.34
2017-08-16T09:03:21.738Z,69.5
2017-08-16T09:04:22.149Z,69.7
2017-08-16T09:05:22.159Z,69.12
2017-08-16T09:06:22.254Z,69.21
2017-08-16T09:07:22.255Z,70.76
2017-08-16T09:08:21.786Z,70.86
2017-08-16T09:09:21.642Z,69.79
2017-08-16T09:10:21.652Z,70.09
2017-08-16T09:11:22.980Z,69.99
2017-08-16T09:12:21.707Z,69.02
2017-08-16T09:13:21.383Z,69.41
2017-08-16T09:14:21.386Z,69.54
2017-08-16T09:15:21.683Z,68.86
2017-08-16T09:16:21.393Z,69.02
2017-08-16T09:17:21.706Z,70.28
2017-08-16T09:18:21.705Z,70.76
2017-08-16T09:19:21.707Z,70.96
2017-08-16T09:20:21.710Z,70.09
2017-08-16T09:21:23.767Z,69.6
2017-08-16T09:22:21.734Z,69.24
2017-08-16T09:23:21.738Z,67.99
2017-08-16T09:24:21.741Z,67.83
2017-08-16T09:25:21.444Z,67.14
2017-08-16T09:26:21.745Z,66.27
2017-08-16T09:27:21.763Z,66.11
2017-08-16T09:28:21.767Z,65.24
2017-08-16T09:29:21.773Z,65.05
2017-08-16T09:30:21.771Z,64.75
2017-08-16T09:31:21.473Z,64.3
2017-08-16T09:32:21.791Z,64.49
2017-08-16T09:33:21.791Z,64.69
2017-08-16T09:34:21.810Z,64.2
2017-08-16T09:35:21.498Z,64.17
2017-08-16T09:36:21.514Z,64.26
2017-08-16T09:37:21.817Z,64.4
2017-08-16T09:38:21.819Z,64.4
2017-08-16T09:39:21.827Z,64.95
2017-08-16T09:40:21.835Z,63.88
2017-08-16T09:41:21.884Z,63.88
2017-08-16T09:42:21.844Z,63.78
2017-08-16T09:43:21.849Z,65.14
2017-08-16T09:44:21.856Z,64.36
2017-08-16T09:45:21.864Z,62.65
2017-08-16T09:46:21.869Z,63.04
2017-08-16T09:47:21.875Z,61.97
2017-08-16T09:48:21.881Z,61.97
2017-08-16T09:49:21.887Z,62.84
2017-08-16T09:50:21.904Z,62.97
2017-08-16T09:51:21.903Z,60.93
2017-08-16T09:52:21.911Z,62.26
2017-08-16T09:53:21.913Z,63.1
2017-08-16T09:54:21.918Z,62.81
2017-08-16T09:55:21.925Z,63.56
2017-08-16T09:56:21.937Z,66.08
2017-08-16T09:57:21.940Z,65.69
2017-08-16T09:58:21.945Z,65.69
2017-08-16T09:59:21.657Z,65.79
2017-08-16T10:00:21.956Z,66.17
2017-08-16T10:01:21.968Z,64.43
2017-08-16T10:02:21.970Z,63.1
2017-08-16T10:03:21.993Z,62.71
2017-08-16T10:04:21.991Z,62.88
2017-08-16T10:05:21.709Z,62.71
2017-08-16T10:06:21.697Z,62.81
2017-08-16T10:07:22.001Z,63.2
2017-08-16T10:08:23.221Z,62.88
2017-08-16T10:09:21.716Z,63.26
2017-08-16T10:10:22.021Z,64.2
2017-08-16T10:11:22.025Z,63.72
2017-08-16T10:12:22.037Z,65.66
2017-08-16T10:13:21.742Z,65.85
2017-08-16T10:14:22.054Z,64.88
2017-08-16T10:15:21.754Z,63.65
2017-08-16T10:16:22.060Z,62.78
2017-08-16T10:17:22.063Z,63.07
2017-08-16T10:18:22.072Z,64.33
2017-08-16T10:19:22.076Z,63.46
2017-08-16T10:20:22.085Z,62.49
2017-08-16T10:21:22.086Z,63.29
2017-08-16T10:22:24.001Z,63.2
2017-08-16T10:23:22.097Z,63.2
2017-08-16T10:24:21.803Z,62.52
2017-08-16T10:25:22.111Z,62.35
2017-08-16T10:26:21.812Z,60.41
2017-08-16T10:27:22.130Z,60.61
2017-08-16T10:28:22.132Z,61.19
2017-08-16T10:29:22.134Z,59.83
2017-08-16T10:30:22.142Z,59.34
2017-08-16T10:31:21.856Z,59.54
2017-08-16T10:32:22.160Z,59.34
2017-08-16T10:33:22.160Z,59.25
2017-08-16T10:34:22.163Z,59.44
2017-08-16T10:35:22.171Z,60.25
2017-08-16T10:36:21.890Z,61.12
2017-08-16T10:37:22.241Z,59.76
2017-08-16T10:38:22.189Z,59.86
2017-08-16T10:39:22.195Z,60.35
2017-08-16T10:40:22.198Z,61.02
2017-08-16T10:41:21.909Z,59.67
2017-08-16T10:42:22.219Z,58.62
2017-08-16T10:43:22.220Z,58.33
2017-08-16T10:44:22.232Z,56.49
2017-08-16T10:45:22.233Z,56.81
2017-08-16T10:46:22.273Z,56.41
2017-08-16T10:47:22.249Z,57
2017-08-16T10:48:22.251Z,56.61
2017-08-16T10:49:22.256Z,57
2017-08-16T10:50:22.265Z,56.61
2017-08-16T10:51:21.972Z,57
2017-08-16T10:52:24.328Z,57.2
2017-08-16T10:53:22.297Z,57.29
2017-08-16T10:54:22.293Z,57.1
2017-08-16T10:55:22.299Z,57
2017-08-16T10:56:22.304Z,56.77
2017-08-16T10:57:22.021Z,57.56
2017-08-16T10:58:22.031Z,58.56
2017-08-16T10:59:22.322Z,57.39
2017-08-16T11:00:22.330Z,56.9
2017-08-16T11:01:22.335Z,56.22
2017-08-16T11:02:22.344Z,55.35
2017-08-16T11:03:22.054Z,56.12
2017-08-16T11:04:22.355Z,56.71
2017-08-16T11:05:22.061Z,57.39
2017-08-16T11:06:22.374Z,57.1
2017-08-16T11:07:22.083Z,57.1
2017-08-16T11:08:22.093Z,56.61
2017-08-16T11:09:22.387Z,56.03
2017-08-16T11:10:22.394Z,56.32
2017-08-16T11:11:22.398Z,55.44
2017-08-16T11:12:22.412Z,54.76
2017-08-16T11:13:22.411Z,55.05
2017-08-16T11:14:22.432Z,55.25
2017-08-16T11:15:22.430Z,56.32
2017-08-16T11:16:22.437Z,57.36
2017-08-16T11:17:22.439Z,57.23
2017-08-16T11:18:22.446Z,58.11
2017-08-16T11:19:22.454Z,58.01
2017-08-16T11:20:22.457Z,56.85
2017-08-16T11:21:22.163Z,57.23
2017-08-16T11:22:22.525Z,57.92
2017-08-16T11:23:22.310Z,58.53
2017-08-16T11:24:22.188Z,56.2
2017-08-16T11:25:22.519Z,57.2
2017-08-16T11:26:22.499Z,56.9
2017-08-16T11:27:22.514Z,57.49
2017-08-16T11:28:22.511Z,56.51
2017-08-16T11:29:22.538Z,55.64
2017-08-16T11:30:22.526Z,55.25
2017-08-16T11:31:22.533Z,54.66
2017-08-16T11:32:22.239Z,55.15
2017-08-16T11:33:22.556Z,55.54
2017-08-16T11:34:22.567Z,55.83
2017-08-16T11:35:22.582Z,57.75
2017-08-16T11:36:22.563Z,56.39
2017-08-16T11:37:22.571Z,56.75
2017-08-16T11:38:22.595Z,57.23
2017-08-16T11:39:22.612Z,57.82
2017-08-16T11:40:22.603Z,58.18
2017-08-16T11:41:22.603Z,57.89
2017-08-16T11:42:22.615Z,57.98
2017-08-16T11:43:22.640Z,58.18
2017-08-16T11:44:22.627Z,57.69
2017-08-16T11:45:22.702Z,57.43
2017-08-16T11:46:22.638Z,57.62
2017-08-16T11:47:22.640Z,59.67
2017-08-16T11:48:22.643Z,60.64
2017-08-16T11:49:22.666Z,60.15
2017-08-16T11:50:22.376Z,59.18
2017-08-16T11:51:22.689Z,60.44
2017-08-16T11:52:22.681Z,59.95
2017-08-16T11:53:22.892Z,60.25
2017-08-16T11:54:22.709Z,60.64
2017-08-16T11:55:22.767Z,61
2017-08-16T11:56:22.767Z,61.77
2017-08-16T11:57:22.399Z,61.77
2017-08-16T11:58:22.711Z,62.26
2017-08-16T11:59:22.723Z,61.19
2017-08-16T12:00:22.717Z,61.58
2017-08-16T12:01:22.726Z,62.74
2017-08-16T12:02:22.728Z,62.23
2017-08-16T12:03:22.434Z,62.32
2017-08-16T12:04:22.739Z,63.39
2017-08-16T12:05:22.749Z,63.75
2017-08-16T12:06:22.451Z,64.43
2017-08-16T12:07:22.756Z,65.08
2017-08-16T12:08:25.915Z,65.37
2017-08-16T12:09:22.470Z,64.98
2017-08-16T12:10:22.472Z,65.66
2017-08-16T12:11:22.783Z,64.69
2017-08-16T12:12:22.798Z,64.98
2017-08-16T12:13:22.800Z,64.69
2017-08-16T12:14:22.799Z,64.69
2017-08-16T12:15:22.801Z,64.78
2017-08-16T12:16:22.816Z,64.88
2017-08-16T12:17:22.516Z,66.53
2017-08-16T12:18:22.818Z,64.88
2017-08-16T12:19:22.824Z,64.59
2017-08-16T12:20:22.831Z,64.2
2017-08-16T12:21:22.836Z,64.59
2017-08-16T12:22:22.846Z,65.85
2017-08-16T12:23:22.860Z,65.27
2017-08-16T12:24:22.865Z,65.08
2017-08-16T12:25:22.861Z,63.85
2017-08-16T12:26:22.860Z,63.85
2017-08-16T12:27:22.866Z,62.1
2017-08-16T12:28:23.086Z,61.55
2017-08-16T12:29:22.892Z,61.07
2017-08-16T12:30:22.895Z,61.35
2017-08-16T12:31:22.890Z,61.38
2017-08-16T12:32:22.902Z,61.48
2017-08-16T12:33:22.674Z,59.74
2017-08-16T12:34:22.910Z,59.83
2017-08-16T12:35:22.939Z,60.28
2017-08-16T12:36:22.990Z,61.45
2017-08-16T12:37:22.934Z,63.98
2017-08-16T12:38:22.984Z,64.56
2017-08-16T12:39:22.988Z,62.91
2017-08-16T12:40:22.944Z,63.39
2017-08-16T12:41:22.946Z,62.42
2017-08-16T12:42:22.950Z,62.98
2017-08-16T12:43:22.955Z,64.04
2017-08-16T12:44:22.965Z,63.88
2017-08-16T12:45:22.969Z,63.29
2017-08-16T12:46:22.970Z,63.17
2017-08-16T12:47:22.985Z,63.36
2017-08-16T12:48:22.687Z,62.59
2017-08-16T12:49:22.689Z,62.78
2017-08-16T12:50:22.995Z,63.13
2017-08-16T12:51:23.004Z,63.13
2017-08-16T12:52:22.735Z,62.85
2017-08-16T12:53:23.015Z,62.85
2017-08-16T12:54:23.014Z,62.88